createdAt,value
2022-08-19T00:00:59.723Z,23.17
2022-08-19T00:03:26.153Z,23.18
2022-08-19T00:05:52.580Z,23.15
2022-08-19T00:08:19.008Z,23.13
2022-08-19T00:10:46.835Z,23.11
2022-08-19T00:13:13.280Z,23.09
2022-08-19T00:15:40.087Z,23.01
2022-08-19T00:18:06.518Z,22.97
2022-08-19T00:20:32.965Z,22.98
2022-08-19T00:22:59.478Z,22.97
2022-08-19T00:25:30.578Z,22.91
2022-08-19T00:27:57.159Z,22.85
2022-08-19T00:30:23.606Z,22.85
2022-08-19T00:32:50.042Z,22.87
2022-08-19T00:35:17.547Z,22.87
2022-08-19T00:37:44.181Z,22.87
2022-08-19T00:40:12.326Z,22.84
2022-08-19T00:42:39.523Z,22.80
2022-08-19T00:45:16.108Z,22.79
2022-08-19T00:47:42.567Z,22.76
2022-08-19T00:50:09.958Z,22.76
2022-08-19T00:52:46.174Z,22.76
2022-08-19T00:55:20.513Z,22.77
2022-08-19T00:57:51.345Z,22.72
2022-08-19T01:00:20.251Z,22.73
2022-08-19T01:02:46.927Z,22.69
2022-08-19T01:05:16.238Z,22.63
2022-08-19T01:07:43.161Z,22.57
2022-08-19T01:10:13.302Z,22.59
2022-08-19T01:12:40.250Z,22.59
2022-08-19T01:15:08.716Z,22.58
2022-08-19T01:17:37.408Z,22.54
2022-08-19T01:20:05.317Z,22.49
2022-08-19T01:22:35.545Z,22.47
2022-08-19T01:25:02.475Z,22.47
2022-08-19T01:27:42.904Z,22.46
2022-08-19T01:30:13.930Z,22.45
2022-08-19T01:32:40.446Z,22.46
2022-08-19T01:35:07.078Z,22.41
2022-08-19T01:37:44.718Z,22.38
2022-08-19T01:40:11.585Z,22.38
2022-08-19T01:42:38.047Z,22.38
2022-08-19T01:45:05.965Z,22.36
2022-08-19T01:47:32.415Z,22.38
2022-08-19T01:49:59.408Z,22.39
2022-08-19T01:52:25.834Z,22.40
2022-08-19T01:54:52.279Z,22.42
2022-08-19T01:57:18.727Z,22.43
2022-08-19T01:59:45.994Z,22.45
2022-08-19T02:02:12.466Z,22.45
2022-08-19T02:04:39.466Z,22.46
2022-08-19T02:07:08.873Z,22.49
2022-08-19T02:09:35.881Z,22.48
2022-08-19T02:12:02.389Z,22.40
2022-08-19T02:14:28.833Z,22.42
2022-08-19T02:16:55.276Z,22.42
2022-08-19T02:19:21.755Z,22.41
2022-08-19T02:21:48.439Z,22.40
2022-08-19T02:24:14.951Z,22.38
2022-08-19T02:26:41.390Z,22.34
2022-08-19T02:29:07.839Z,22.35
2022-08-19T02:31:34.302Z,22.37
2022-08-19T02:34:01.342Z,22.36
2022-08-19T02:36:28.684Z,22.37
2022-08-19T02:38:56.764Z,22.37
2022-08-19T02:41:27.277Z,22.35
2022-08-19T02:44:28.783Z,22.34
2022-08-19T02:46:41.689Z,22.28
2022-08-19T02:49:08.864Z,22.28
2022-08-19T02:51:38.118Z,22.27
2022-08-19T02:54:05.846Z,22.19
2022-08-19T02:56:32.361Z,22.18
2022-08-19T02:58:59.351Z,22.16
2022-08-19T03:01:31.464Z,22.14
2022-08-19T03:04:00.198Z,22.16
2022-08-19T03:06:27.624Z,22.08
2022-08-19T03:08:54.666Z,22.04
2022-08-19T03:11:25.147Z,21.96
2022-08-19T03:13:51.846Z,21.97
2022-08-19T03:16:19.584Z,21.96
2022-08-19T03:18:46.531Z,21.95
2022-08-19T03:21:27.574Z,21.93
2022-08-19T03:24:06.814Z,21.92
2022-08-19T03:26:35.030Z,21.92
2022-08-19T03:29:05.823Z,21.92
2022-08-19T03:31:44.191Z,21.85
2022-08-19T03:34:20.559Z,21.80
2022-08-19T03:36:47.435Z,21.81
2022-08-19T03:39:14.707Z,21.82
2022-08-19T03:41:45.535Z,21.82
2022-08-19T03:44:16.802Z,21.81
2022-08-19T03:46:44.880Z,21.81
2022-08-19T03:49:11.379Z,21.82
2022-08-19T03:51:42.366Z,21.78
2022-08-19T03:54:13.744Z,21.76
2022-08-19T03:56:41.370Z,21.74
2022-08-19T03:59:11.985Z,21.74
2022-08-19T04:01:38.559Z,21.73
2022-08-19T04:04:05.344Z,21.71
2022-08-19T04:06:34.933Z,21.64
2022-08-19T04:09:03.987Z,21.56
2022-08-19T04:11:43.782Z,21.52
2022-08-19T04:14:19.372Z,21.51
2022-08-19T04:16:47.291Z,21.47
2022-08-19T04:19:16.131Z,21.47
2022-08-19T04:21:48.098Z,21.42
2022-08-19T04:24:14.704Z,21.41
2022-08-19T04:26:41.877Z,21.41
2022-08-19T04:29:12.833Z,21.34
2022-08-19T04:31:40.439Z,21.25
2022-08-19T04:34:08.926Z,21.31
2022-08-19T04:36:37.181Z,21.34
2022-08-19T04:39:06.571Z,21.35
2022-08-19T04:41:52.329Z,21.36
2022-08-19T04:44:19.078Z,21.34
2022-08-19T04:46:51.770Z,21.31
2022-08-19T04:49:20.091Z,21.34
2022-08-19T04:51:48.620Z,21.37
2022-08-19T04:54:25.870Z,21.36
2022-08-19T04:57:02.615Z,21.35
2022-08-19T04:59:29.257Z,21.39
2022-08-19T05:01:55.733Z,21.34
2022-08-19T05:04:22.196Z,21.36
2022-08-19T05:06:49.707Z,21.35
2022-08-19T05:09:17.165Z,21.36
2022-08-19T05:11:44.687Z,21.37
2022-08-19T05:14:13.871Z,21.39
2022-08-19T05:16:41.211Z,21.43
2022-08-19T05:19:26.344Z,21.39
2022-08-19T05:22:11.282Z,21.43
2022-08-19T05:24:51.293Z,21.44
2022-08-19T05:27:24.416Z,21.48
2022-08-19T05:29:50.856Z,21.44
2022-08-19T05:32:17.357Z,21.41
2022-08-19T05:34:43.787Z,21.40
2022-08-19T05:37:10.267Z,21.39
2022-08-19T05:39:38.071Z,21.44
2022-08-19T05:42:08.004Z,21.42
2022-08-19T05:44:38.067Z,21.42
2022-08-19T05:47:07.185Z,21.39
2022-08-19T05:49:34.181Z,21.39
2022-08-19T05:52:06.521Z,21.40
2022-08-19T05:54:33.184Z,21.42
2022-08-19T05:56:59.763Z,21.47
2022-08-19T05:59:26.200Z,21.43
2022-08-19T06:01:55.192Z,21.48
2022-08-19T06:04:21.710Z,21.47
2022-08-19T06:06:55.360Z,21.45
2022-08-19T06:09:23.149Z,21.43
2022-08-19T06:12:00.862Z,21.44
2022-08-19T06:14:30.018Z,21.40
2022-08-19T06:16:57.503Z,21.40
2022-08-19T06:19:25.232Z,21.44
2022-08-19T06:21:52.622Z,21.41
2022-08-19T06:24:23.966Z,21.37
2022-08-19T06:26:56.715Z,21.41
2022-08-19T06:29:25.846Z,21.40
2022-08-19T06:31:54.745Z,21.42
2022-08-19T06:34:21.562Z,21.37
2022-08-19T06:36:49.877Z,21.41
2022-08-19T06:39:25.153Z,21.42
2022-08-19T06:41:56.832Z,21.46
2022-08-19T06:44:29.188Z,21.42
2022-08-19T06:46:58.255Z,21.43
2022-08-19T06:49:25.998Z,21.42
2022-08-19T06:51:52.503Z,21.41
2022-08-19T06:54:20.256Z,21.40
2022-08-19T06:56:47.566Z,21.38
2022-08-19T06:59:16.594Z,21.41
2022-08-19T07:01:47.536Z,21.27
2022-08-19T07:04:21.566Z,21.28
2022-08-19T07:06:55.108Z,21.29
2022-08-19T07:09:21.889Z,21.29
2022-08-19T07:11:50.227Z,21.32
2022-08-19T07:14:19.459Z,21.32
2022-08-19T07:16:50.516Z,21.29
2022-08-19T07:19:19.194Z,21.33
2022-08-19T07:21:48.892Z,21.33
2022-08-19T07:24:16.565Z,21.37
2022-08-19T07:26:44.081Z,21.40
2022-08-19T07:29:12.025Z,21.42
2022-08-19T07:31:40.631Z,21.48
2022-08-19T07:34:12.369Z,21.54
2022-08-19T07:36:41.549Z,21.54
2022-08-19T07:39:29.572Z,21.57
2022-08-19T07:41:57.233Z,21.46
2022-08-19T07:44:24.130Z,21.56
2022-08-19T07:46:54.345Z,21.55
2022-08-19T07:49:21.423Z,21.52
2022-08-19T07:51:51.084Z,21.55
2022-08-19T07:54:18.336Z,21.59
2022-08-19T07:56:44.797Z,21.62
2022-08-19T07:59:11.365Z,21.65
2022-08-19T08:01:41.788Z,21.69
2022-08-19T08:04:27.190Z,21.66
2022-08-19T08:07:12.686Z,21.64
2022-08-19T08:09:42.682Z,21.65
2022-08-19T08:12:33.567Z,21.57
2022-08-19T08:15:05.395Z,21.56
2022-08-19T08:17:48.503Z,21.59
2022-08-19T08:20:17.568Z,21.55
2022-08-19T08:23:04.499Z,21.44
2022-08-19T08:25:32.568Z,21.35
2022-08-19T08:28:01.324Z,21.39
2022-08-19T08:30:31.276Z,21.40
2022-08-19T08:32:59.572Z,21.37
2022-08-19T08:35:26.038Z,21.47
2022-08-19T08:37:54.593Z,21.45
2022-08-19T08:40:40.027Z,21.47
2022-08-19T08:43:11.232Z,21.49
2022-08-19T08:45:44.098Z,21.34
2022-08-19T08:48:24.346Z,21.45
2022-08-19T08:50:53.526Z,21.49
2022-08-19T08:53:27.470Z,21.53
2022-08-19T08:55:56.835Z,21.58
2022-08-19T08:58:54.563Z,21.61
2022-08-19T09:01:21.609Z,21.64
2022-08-19T09:03:48.524Z,21.61
2022-08-19T09:06:37.798Z,21.65
2022-08-19T09:09:33.683Z,21.65
2022-08-19T09:12:15.337Z,21.71
2022-08-19T09:14:52.496Z,21.68
2022-08-19T09:17:28.382Z,21.74
2022-08-19T09:20:16.608Z,21.68
2022-08-19T09:22:46.395Z,21.80
2022-08-19T09:25:26.702Z,21.87
2022-08-19T09:27:55.176Z,21.92
2022-08-19T09:30:31.514Z,21.94
2022-08-19T09:32:58.519Z,21.97
2022-08-19T09:35:28.333Z,22.05
2022-08-19T09:37:55.119Z,22.12
2022-08-19T09:40:24.915Z,22.11
2022-08-19T09:42:52.647Z,22.15
2022-08-19T09:45:24.080Z,22.21
2022-08-19T09:47:52.206Z,22.30
2022-08-19T09:50:21.102Z,22.36
2022-08-19T09:52:55.596Z,22.41
2022-08-19T09:55:31.784Z,22.51
2022-08-19T09:58:03.292Z,22.60
2022-08-19T10:00:31.616Z,22.63
2022-08-19T10:02:58.119Z,22.69
2022-08-19T10:05:43.095Z,22.75
2022-08-19T10:08:13.748Z,22.71
2022-08-19T10:10:46.755Z,22.76
2022-08-19T10:13:15.834Z,22.79
2022-08-19T10:15:45.097Z,22.72
2022-08-19T10:18:14.267Z,22.63
2022-08-19T10:20:42.612Z,22.66
2022-08-19T10:23:09.798Z,22.67
2022-08-19T10:25:36.254Z,22.72
2022-08-19T10:28:05.247Z,22.75
2022-08-19T10:30:37.227Z,22.77
2022-08-19T10:33:08.580Z,22.88
2022-08-19T10:35:42.697Z,22.85
2022-08-19T10:38:30.604Z,22.97
2022-08-19T10:40:58.355Z,22.93
2022-08-19T10:43:25.879Z,22.89
2022-08-19T10:46:00.231Z,22.87
2022-08-19T10:48:26.707Z,23.00
2022-08-19T10:51:12.504Z,23.03
2022-08-19T10:53:49.499Z,23.11
2022-08-19T10:56:34.626Z,23.25
2022-08-19T10:59:02.057Z,23.22
2022-08-19T11:01:30.777Z,23.23
2022-08-19T11:03:58.270Z,23.31
2022-08-19T11:06:28.018Z,23.35
2022-08-19T11:08:55.511Z,23.19
2022-08-19T11:11:22.489Z,23.35
2022-08-19T11:13:50.754Z,23.41
2022-08-19T11:16:23.295Z,23.46
2022-08-19T11:18:52.880Z,23.50
2022-08-19T11:21:20.361Z,23.57
2022-08-19T11:23:48.309Z,23.74
2022-08-19T11:26:15.737Z,23.75
2022-08-19T11:28:42.478Z,23.93
2022-08-19T11:31:18.398Z,23.89
2022-08-19T11:33:47.238Z,23.83
2022-08-19T11:36:15.051Z,23.93
2022-08-19T11:38:41.780Z,23.98
2022-08-19T11:41:08.382Z,23.96
2022-08-19T11:43:37.447Z,23.95
2022-08-19T11:46:09.087Z,24.04
2022-08-19T11:48:35.973Z,24.02
2022-08-19T11:51:07.132Z,24.08
2022-08-19T11:53:34.212Z,24.17
2022-08-19T11:56:01.727Z,24.25
2022-08-19T11:58:28.241Z,24.21
2022-08-19T12:00:54.687Z,24.18
2022-08-19T12:03:21.135Z,24.35
2022-08-19T12:05:47.826Z,24.44
2022-08-19T12:08:14.787Z,24.43
2022-08-19T12:10:43.059Z,24.57
2022-08-19T12:13:10.475Z,24.57
2022-08-19T12:15:41.780Z,24.67
2022-08-19T12:18:09.770Z,24.72
2022-08-19T12:20:37.539Z,24.81
2022-08-19T12:23:05.142Z,24.73
2022-08-19T12:25:32.603Z,24.83
2022-08-19T12:27:59.479Z,24.86
2022-08-19T12:30:26.338Z,24.81
2022-08-19T12:32:52.825Z,24.76
2022-08-19T12:35:21.029Z,24.82
2022-08-19T12:37:56.772Z,24.88
2022-08-19T12:40:24.257Z,24.96
2022-08-19T12:42:53.004Z,24.95
2022-08-19T12:45:20.041Z,24.99
2022-08-19T12:47:47.737Z,24.98
2022-08-19T12:50:15.961Z,25.14
2022-08-19T12:52:43.221Z,25.13
2022-08-19T12:55:12.430Z,25.18
2022-08-19T12:57:39.942Z,25.22
2022-08-19T13:00:16.333Z,25.27
2022-08-19T13:02:46.454Z,25.28
2022-08-19T13:05:27.248Z,25.32
2022-08-19T13:07:58.199Z,25.34
2022-08-19T13:10:28.743Z,25.34
2022-08-19T13:12:55.870Z,25.34
2022-08-19T13:15:24.472Z,25.35
2022-08-19T13:17:52.881Z,25.26
2022-08-19T13:20:21.123Z,25.29
2022-08-19T13:22:48.741Z,25.27
2022-08-19T13:25:18.436Z,25.34
2022-08-19T13:27:45.041Z,25.43
2022-08-19T13:30:33.260Z,25.38
2022-08-19T13:33:11.945Z,25.35
2022-08-19T13:35:55.995Z,25.32
2022-08-19T13:38:23.591Z,25.24
2022-08-19T13:40:52.936Z,25.32
2022-08-19T13:43:23.790Z,25.14
2022-08-19T13:45:56.972Z,25.20
2022-08-19T13:48:27.156Z,25.23
2022-08-19T13:50:54.987Z,25.29
2022-08-19T13:53:21.455Z,25.31
2022-08-19T13:55:48.123Z,25.26
2022-08-19T13:58:14.567Z,25.29
2022-08-19T14:00:44.130Z,25.37
2022-08-19T14:03:10.645Z,25.38
2022-08-19T14:05:37.247Z,25.53
2022-08-19T14:08:03.881Z,25.57
2022-08-19T14:10:31.709Z,25.55
2022-08-19T14:13:00.737Z,25.62
2022-08-19T14:15:27.944Z,25.55
2022-08-19T14:17:55.149Z,25.62
2022-08-19T14:20:22.361Z,25.56
2022-08-19T14:22:53.687Z,25.67
2022-08-19T14:25:24.498Z,25.73
2022-08-19T14:27:51.135Z,25.80
2022-08-19T14:30:27.673Z,25.69
2022-08-19T14:32:55.052Z,25.60
2022-08-19T14:35:22.812Z,25.64
2022-08-19T14:37:50.621Z,25.58
2022-08-19T14:40:21.514Z,25.64
2022-08-19T14:42:49.447Z,25.65
2022-08-19T14:45:15.908Z,25.61
2022-08-19T14:47:42.371Z,25.60
2022-08-19T14:50:18.355Z,25.59
2022-08-19T14:52:46.049Z,25.57
2022-08-19T14:55:12.496Z,25.49
2022-08-19T14:57:38.947Z,25.48
2022-08-19T15:00:06.213Z,25.48
2022-08-19T15:02:34.586Z,25.39
2022-08-19T15:05:02.831Z,25.35
2022-08-19T15:07:30.230Z,25.37
2022-08-19T15:09:57.096Z,25.33
2022-08-19T15:12:23.672Z,25.32
2022-08-19T15:14:55.876Z,25.30
2022-08-19T15:17:24.797Z,25.31
2022-08-19T15:20:10.828Z,25.27
2022-08-19T15:22:37.277Z,25.23
2022-08-19T15:25:05.145Z,25.21
2022-08-19T15:27:32.941Z,25.20
2022-08-19T15:30:01.500Z,25.20
2022-08-19T15:32:28.940Z,25.18
2022-08-19T15:34:55.396Z,25.16
2022-08-19T15:37:25.156Z,25.16
2022-08-19T15:39:51.744Z,25.15
2022-08-19T15:42:29.652Z,25.13
2022-08-19T15:44:56.820Z,25.13
2022-08-19T15:47:29.375Z,25.13
2022-08-19T15:50:14.510Z,25.13
2022-08-19T15:52:51.356Z,25.06
2022-08-19T15:55:33.286Z,25.05
2022-08-19T15:58:32.024Z,25.08
2022-08-19T16:01:20.461Z,25.05
2022-08-19T16:04:14.343Z,25.05
2022-08-19T16:06:47.829Z,25.06
2022-08-19T16:09:16.604Z,25.05
2022-08-19T16:11:46.306Z,25.06
2022-08-19T16:14:18.492Z,25.09
2022-08-19T16:16:48.795Z,25.06
2022-08-19T16:19:17.484Z,25.05
2022-08-19T16:21:47.222Z,25.02
2022-08-19T16:24:15.040Z,25.01
2022-08-19T16:26:42.471Z,25.01
2022-08-19T16:29:12.247Z,25.00
2022-08-19T16:31:41.431Z,24.98
2022-08-19T16:34:07.888Z,24.96
2022-08-19T16:36:34.452Z,24.93
2022-08-19T16:39:01.516Z,24.90
2022-08-19T16:41:28.851Z,24.80
2022-08-19T16:43:55.379Z,24.81
2022-08-19T16:46:22.638Z,24.73
2022-08-19T16:48:49.769Z,24.72
2022-08-19T16:51:16.371Z,24.71
2022-08-19T16:53:44.995Z,24.65
2022-08-19T16:56:12.178Z,24.66
2022-08-19T16:58:39.139Z,24.67
2022-08-19T17:01:08.581Z,24.66
2022-08-19T17:03:35.768Z,24.63
2022-08-19T17:06:15.985Z,24.63
2022-08-19T17:08:48.860Z,24.62
2022-08-19T17:11:18.628Z,24.57
2022-08-19T17:13:45.486Z,24.49
2022-08-19T17:16:15.335Z,24.47
2022-08-19T17:18:41.763Z,24.47
2022-08-19T17:21:08.242Z,24.46
2022-08-19T17:23:42.465Z,24.41
2022-08-19T17:26:16.821Z,24.35
2022-08-19T17:28:44.959Z,24.34
2022-08-19T17:31:11.525Z,24.29
2022-08-19T17:33:41.341Z,24.29
2022-08-19T17:36:08.406Z,24.26
2022-08-19T17:38:35.761Z,24.12
2022-08-19T17:41:05.908Z,24.16
2022-08-19T17:43:40.027Z,24.14
2022-08-19T17:46:11.003Z,24.13
2022-08-19T17:48:40.552Z,24.13
2022-08-19T17:51:14.677Z,24.11
2022-08-19T17:53:41.819Z,24.03
2022-08-19T17:56:08.711Z,24.04
2022-08-19T17:58:35.134Z,24.06
2022-08-19T18:01:02.756Z,24.05
2022-08-19T18:03:30.371Z,24.07
2022-08-19T18:05:57.170Z,24.08
2022-08-19T18:08:23.922Z,24.08
2022-08-19T18:10:50.889Z,24.10
2022-08-19T18:13:18.093Z,24.10
2022-08-19T18:15:44.736Z,24.11
2022-08-19T18:18:15.669Z,24.11
2022-08-19T18:20:42.596Z,24.09
2022-08-19T18:23:44.650Z,24.09
2022-08-19T18:25:55.746Z,24.08
2022-08-19T18:28:23.765Z,24.04
2022-08-19T18:30:50.219Z,24.02
2022-08-19T18:33:16.932Z,24.01
2022-08-19T18:35:46.143Z,24.01
2022-08-19T18:38:47.652Z,23.99
2022-08-19T18:41:36.126Z,23.99
2022-08-19T18:44:21.266Z,23.96
2022-08-19T18:47:06.313Z,23.94
2022-08-19T18:49:33.628Z,23.92
2022-08-19T18:52:03.131Z,23.92
2022-08-19T18:54:30.241Z,23.89
2022-08-19T18:56:56.760Z,23.88
2022-08-19T18:59:25.018Z,23.88
2022-08-19T19:01:52.925Z,23.86
2022-08-19T19:04:21.246Z,23.85
2022-08-19T19:06:47.967Z,23.83
2022-08-19T19:09:17.907Z,23.83
2022-08-19T19:11:48.174Z,23.82
2022-08-19T19:14:32.836Z,23.80
2022-08-19T19:17:06.945Z,23.80
2022-08-19T19:19:34.660Z,23.80
2022-08-19T19:22:03.053Z,23.78
2022-08-19T19:24:32.604Z,23.77
2022-08-19T19:27:05.906Z,23.76
2022-08-19T19:29:32.938Z,23.74
2022-08-19T19:31:59.381Z,23.73
2022-08-19T19:34:29.820Z,23.71
2022-08-19T19:36:56.870Z,23.70
2022-08-19T19:39:34.062Z,23.69
2022-08-19T19:42:12.555Z,23.70
2022-08-19T19:44:48.832Z,23.68
2022-08-19T19:47:17.433Z,23.64
2022-08-19T19:50:10.562Z,23.63
2022-08-19T19:52:31.551Z,23.62
2022-08-19T19:54:58.006Z,23.62
2022-08-19T19:57:26.510Z,23.61
2022-08-19T19:59:54.173Z,23.60
2022-08-19T20:02:22.074Z,23.58
2022-08-19T20:04:51.150Z,23.57
2022-08-19T20:07:17.672Z,23.56
2022-08-19T20:09:59.238Z,23.56
2022-08-19T20:12:26.705Z,23.54
2022-08-19T20:14:53.178Z,23.54
2022-08-19T20:17:20.681Z,23.53
2022-08-19T20:19:47.953Z,23.52
2022-08-19T20:22:14.670Z,23.50
2022-08-19T20:24:42.548Z,23.49
2022-08-19T20:27:10.641Z,23.47
2022-08-19T20:29:38.811Z,23.46
2022-08-19T20:32:08.589Z,23.43
2022-08-19T20:34:35.022Z,23.42
2022-08-19T20:37:01.456Z,23.38
2022-08-19T20:39:27.966Z,23.37
2022-08-19T20:41:56.224Z,23.35
2022-08-19T20:44:24.070Z,23.31
2022-08-19T20:46:54.633Z,23.29
2022-08-19T20:49:22.180Z,23.28
2022-08-19T20:51:48.884Z,23.27
2022-08-19T20:54:15.375Z,23.23
2022-08-19T20:56:41.809Z,23.23
2022-08-19T20:59:10.456Z,23.20
2022-08-19T21:01:37.499Z,23.17
2022-08-19T21:04:04.108Z,23.15
2022-08-19T21:06:30.998Z,23.12
2022-08-19T21:08:58.730Z,23.11
2022-08-19T21:11:25.274Z,23.09
2022-08-19T21:16:18.044Z,23.04
2022-08-19T21:18:44.592Z,23.03
2022-08-19T21:21:11.159Z,23.02
2022-08-19T21:23:37.590Z,23.01
2022-08-19T21:26:04.047Z,23.00
2022-08-19T21:28:36.112Z,22.98
2022-08-19T21:31:05.273Z,23.00
2022-08-19T21:33:32.255Z,22.99
2022-08-19T21:36:00.022Z,22.98
2022-08-19T21:38:27.288Z,22.97
2022-08-19T21:40:54.118Z,22.97
2022-08-19T21:43:20.657Z,22.97
2022-08-19T21:45:47.660Z,22.97
2022-08-19T21:48:14.734Z,22.97
2022-08-19T21:50:42.343Z,22.97
2022-08-19T21:53:08.914Z,22.94
2022-08-19T21:55:38.924Z,22.93
2022-08-19T21:58:05.376Z,22.92
2022-08-19T22:00:33.987Z,22.91
2022-08-19T22:03:01.286Z,22.90
2022-08-19T22:05:28.142Z,22.87
2022-08-19T22:07:59.789Z,22.87
2022-08-19T22:10:31.856Z,22.85
2022-08-19T22:12:58.911Z,22.84
2022-08-19T22:15:29.110Z,22.83
2022-08-19T22:17:56.978Z,22.81
2022-08-19T22:20:26.783Z,22.79
2022-08-19T22:22:59.479Z,22.75
2022-08-19T22:25:31.717Z,22.75
2022-08-19T22:28:01.841Z,22.73
2022-08-19T22:30:32.363Z,22.71
2022-08-19T22:33:03.656Z,22.69
2022-08-19T22:35:31.881Z,22.68
2022-08-19T22:37:59.327Z,22.68
2022-08-19T22:40:27.500Z,22.66
2022-08-19T22:43:29.930Z,22.64
2022-08-19T22:45:57.139Z,22.63
2022-08-19T22:48:25.877Z,22.62
2022-08-19T22:51:12.069Z,22.60
2022-08-19T22:53:42.069Z,22.59
2022-08-19T22:56:13.157Z,22.58
2022-08-19T22:58:42.301Z,22.57
2022-08-19T23:01:11.147Z,22.54
2022-08-19T23:03:41.787Z,22.53
2022-08-19T23:06:08.327Z,22.51
2022-08-19T23:08:39.634Z,22.49
2022-08-19T23:11:06.210Z,22.45
2022-08-19T23:13:33.073Z,22.41
2022-08-19T23:15:59.497Z,22.39
2022-08-19T23:18:26.373Z,22.35
2022-08-19T23:20:54.425Z,22.33
2022-08-19T23:23:24.669Z,22.31
2022-08-19T23:25:55.398Z,22.30
2022-08-19T23:28:41.510Z,22.30
2022-08-19T23:31:09.048Z,22.28
2022-08-19T23:33:50.925Z,22.27
2022-08-19T23:36:18.245Z,22.24
2022-08-19T23:38:46.801Z,22.23
2022-08-19T23:41:15.032Z,22.22
2022-08-19T23:43:42.909Z,22.20
2022-08-19T23:46:11.564Z,22.20
2022-08-19T23:48:38.337Z,22.18
2022-08-19T23:51:07.705Z,22.18
2022-08-19T23:53:34.353Z,22.17
2022-08-19T23:56:00.794Z,22.16
2022-08-19T23:58:27.769Z,22.16
